Palm Beach, FL (33480)

8:49 AM EDT on May 30, 2015 (GMT -0400)
Will's Weather Station | | Change Station
CLOSE
Current Station
Personal Weather Station
Location: Palm Beach, FL
Elevation: 20 ft
Nearby Weather Stations

Elev 20 ft 26.65 °N, 80.04 °W | Updated 4 seconds ago

Partly Cloudy
Partly Cloudy
80.0 °F
Feels Like 83 °F
N
5.6
Wind Variable Wind from ESE
Gusts 7.4 mph

Today
High -- | Low -- °F
--% Chance of Precip.
Yesterday
High -- | Low -- °F
Precip. -- in
6:27 AM 8:08 PM
Waxing Gibbous, 90% visible
Pressure 30.06 in
Visibility 10.0 miles
Clouds Few 2500 ft
Scattered Clouds 3400 ft
Scattered Clouds 25000 ft
Heat Index 83 °F
Dew Point 71 °F
Humidity 74%
Rainfall 0.00 in
Snow Depth Not available.
UV 1 out of 12
Pollen 4.30 out of 12
Air Quality Not available.
Flu Activity Sporadic
METAR KPBI 301153Z 09004KT 10SM FEW025 SCT034 SCT250 26/21 A3006 RMK AO2 SLP178 60001 70001 T02610211 10261 20250 53010 $

More Conditions Fewer Conditions

Pressure 30.06 in
Visibility 10.0 miles
Clouds Few 2500 ft
Scattered Clouds 3400 ft
Scattered Clouds 25000 ft
Heat Index 83 °F
Dew Point 71 °F
Humidity 74%
Rainfall 0.00 in
Snow Depth Not available.
UV 1 out of 12
Pollen 4.30 out of 12
Air Quality Not available.
Flu Activity Sporadic
METAR KPBI 301153Z 09004KT 10SM FEW025 SCT034 SCT250 26/21 A3006 RMK AO2 SLP178 60001 70001 T02610211 10261 20250 53010 $

More Conditions Fewer Conditions

10-Day Weather Forecast

Almanac

Astronomy

May. 30, 2015 Rise Set
Actual Time
Civil Twilight
Nautical Twilight
Astronomical Twilight
Moon
Length of Visible Light
Length of Day
Tomorrow will be .
, % of the Moon is Illuminated

Today's Extremes

State Highs State Lows

Community

WunderPhotos

Upload Photos

1,825,498 photos uploaded!

WunderBlogs® & News

Nearby

Air Quality

  Air Quality AQ Index Pollutant
Not available.

Snow Depth

Station Depth Elevation

Earthquake Activity

City Distance Mag. Time & Date
Minimum magnitude displayed is 2.5.

Coastal Water Temperatures

Place Temperature

Stations

Nearby Weather Stations

Station Location Temp. Windchill Dew Point Humidity Wind Precip. Elev Updated Type